Aérodrome :
LOGIN :

S'inscrire | Disclaimer

   EN    FR    IT 

 










Légende :    VFR   VFR Marginal   IFR   IFR Intensif   IFR Très Intensif
Visi : 
Plafond : 
>= 8 km
>= 3000ft
5 à 8 km
1000 à 3000 ft
1500m à 5 km
500 à 1000 ft
800 à 1500m
200 à 500 ft
< 800m
< 200 ft
Symboles :   Orages  Brouillard  Fortes neiges  Fortes précipitations  Vent > 20 kt
SIGMETs :   Divers  Orages  Givrage  Turbulence  Onde Orograph.  Cendres Volcan.






- Altitude de l'aérodrome : 699 ft
- Code IATA : PAD


EDLP - Paderborn Lippstadt

DERNIER METAR :
  • 221120Z 35005KT 290V060 9999 BKN028 15/10 Q1016

METARs EXPIRÉS :
  • 221050Z 36005KT 320V060 9999 BKN028 14/10 Q1016
  • 221020Z 04004KT 330V080 9999 SCT024 BKN028 14/10 Q1016
  • 220950Z VRB03KT 9999 BKN022 14/10 Q1016
  • 220920Z 04005KT 010V070 9999 FEW015 OVC018 13/10 Q1016
  • 220850Z 06006KT 020V090 9999 FEW014 BKN018 BKN022 13/10 Q1015

TAF TAF EDLP
Valide du 22 à 06h jusqu'au 23 à 06h UTC


220500Z 2206/2306 03005KT 9999 OVC006
BECMG 2206/2209 SCT012 BKN020
TEMPO 2209/2211 BKN014



MET'MAP, la Météo Aéronautique d'un coup d'oeil ! - Copyright ORBIFLY Décembre 2007 - Disclaimer

ORBIFLY MET'MAP TEAM :

Programmation & Développement : Alexandra Zaïnal
Sur une idée originale de : Baudouin d'Aumeries
Assistance à la programmation : Marc-Olivier Méhu
Soutien technique & logistique : Manuel Goepfert

Contact : metmap@orbifly.com




SOURCES & CREDITS :

   NOAA